createdAt,value
2023-03-15T00:00:38.480Z,5.70
2023-03-15T00:03:43.303Z,5.63
2023-03-15T00:06:49.074Z,5.77
2023-03-15T00:09:53.295Z,5.00
2023-03-15T00:12:57.768Z,6.17
2023-03-15T00:16:03.913Z,5.43
2023-03-15T00:19:08.062Z,5.73
2023-03-15T00:22:13.507Z,6.67
2023-03-15T00:25:17.589Z,5.13
2023-03-15T00:28:22.084Z,5.77
2023-03-15T00:31:28.487Z,5.30
2023-03-15T00:34:34.589Z,5.13
2023-03-15T00:37:40.294Z,5.30
2023-03-15T00:40:44.415Z,5.17
2023-03-15T00:43:48.963Z,4.93
2023-03-15T00:46:53.026Z,4.97
2023-03-15T00:49:57.134Z,5.23
2023-03-15T00:53:02.764Z,4.90
2023-03-15T00:56:08.129Z,5.30
2023-03-15T00:59:12.164Z,4.90
2023-03-15T01:02:16.636Z,5.70
2023-03-15T01:05:23.638Z,5.53
2023-03-15T01:08:29.478Z,5.13
2023-03-15T01:11:33.758Z,5.53
2023-03-15T01:14:39.419Z,5.73
2023-03-15T01:17:44.124Z,5.47
2023-03-15T01:20:48.308Z,5.43
2023-03-15T01:23:55.118Z,5.60
2023-03-15T01:26:59.339Z,5.07
2023-03-15T01:30:03.553Z,5.50
2023-03-15T01:33:07.727Z,6.13
2023-03-15T01:36:13.708Z,5.43
2023-03-15T01:39:19.618Z,4.63
2023-03-15T01:42:24.007Z,5.43
2023-03-15T01:46:01.721Z,5.80
2023-03-15T01:49:12.871Z,5.03
2023-03-15T01:52:23.865Z,5.43
2023-03-15T01:55:36.705Z,5.10
2023-03-15T01:58:49.454Z,5.77
2023-03-15T02:01:54.939Z,5.33
2023-03-15T02:05:04.656Z,5.77
2023-03-15T02:08:12.103Z,5.63
2023-03-15T02:11:21.086Z,5.97
2023-03-15T02:14:26.475Z,5.70
2023-03-15T02:17:38.888Z,6.10
2023-03-15T02:20:53.108Z,5.60
2023-03-15T02:24:12.515Z,6.07
2023-03-15T02:27:28.580Z,7.90
2023-03-15T02:30:32.669Z,6.50
2023-03-15T02:33:42.719Z,6.13
2023-03-15T02:36:46.755Z,6.33
2023-03-15T02:39:50.749Z,5.77
2023-03-15T02:43:01.135Z,5.30
2023-03-15T02:46:06.082Z,5.53
2023-03-15T02:49:11.884Z,6.63
2023-03-15T02:52:16.200Z,6.60
2023-03-15T02:55:22.191Z,6.80
2023-03-15T02:58:27.695Z,8.77
2023-03-15T03:01:32.010Z,8.50
2023-03-15T03:04:36.163Z,7.83
2023-03-15T03:07:40.721Z,8.23
2023-03-15T03:10:45.284Z,7.53
2023-03-15T03:13:51.622Z,6.23
2023-03-15T03:16:56.756Z,5.93
2023-03-15T03:20:01.405Z,6.17
2023-03-15T03:23:11.650Z,5.87
2023-03-15T03:26:17.707Z,5.80
2023-03-15T03:29:25.290Z,5.90
2023-03-15T03:32:31.256Z,5.40
2023-03-15T03:35:35.353Z,5.80
2023-03-15T03:38:39.704Z,5.73
2023-03-15T03:41:44.025Z,5.77
2023-03-15T03:44:51.900Z,5.90
2023-03-15T03:47:56.905Z,6.03
2023-03-15T03:51:01.195Z,6.03
2023-03-15T03:54:05.991Z,5.83
2023-03-15T03:57:10.459Z,6.47
2023-03-15T04:00:18.904Z,6.03
2023-03-15T04:03:27.620Z,6.13
2023-03-15T04:06:39.819Z,6.30
2023-03-15T04:09:43.812Z,6.30
2023-03-15T04:12:47.854Z,6.73
2023-03-15T04:15:58.028Z,6.10
2023-03-15T04:19:10.096Z,6.20
2023-03-15T04:22:15.784Z,6.13
2023-03-15T04:25:40.113Z,6.63
2023-03-15T04:29:09.186Z,7.03
2023-03-15T04:32:38.073Z,6.77
2023-03-15T04:36:03.164Z,6.10
2023-03-15T04:39:10.251Z,7.63
2023-03-15T04:42:29.362Z,8.03
2023-03-15T04:45:36.153Z,7.87
2023-03-15T04:49:00.086Z,7.43
2023-03-15T04:52:04.178Z,6.20
2023-03-15T04:55:31.090Z,7.23
2023-03-15T04:58:44.044Z,6.77
2023-03-15T05:02:06.493Z,6.40
2023-03-15T05:05:27.400Z,6.40
2023-03-15T05:08:39.968Z,7.17
2023-03-15T05:12:08.369Z,6.70
2023-03-15T05:15:32.626Z,6.80
2023-03-15T05:18:59.945Z,7.07
2023-03-15T05:22:26.037Z,6.77
2023-03-15T05:25:54.539Z,7.70
2023-03-15T05:29:24.402Z,7.43
2023-03-15T05:32:39.965Z,8.93
2023-03-15T05:36:04.002Z,10.07
2023-03-15T05:39:17.101Z,10.23
2023-03-15T05:42:33.565Z,8.57
2023-03-15T05:46:00.714Z,7.97
2023-03-15T05:49:20.327Z,8.07
2023-03-15T05:52:41.971Z,8.00
2023-03-15T05:55:54.762Z,7.20
2023-03-15T05:59:28.080Z,7.87
2023-03-15T06:02:54.398Z,7.77
2023-03-15T06:06:23.875Z,7.67
2023-03-15T06:09:28.455Z,7.83
2023-03-15T06:12:34.862Z,8.00
2023-03-15T06:15:39.827Z,7.57
2023-03-15T06:18:45.415Z,8.20
2023-03-15T06:21:49.832Z,8.03
2023-03-15T06:25:07.216Z,8.13
2023-03-15T06:28:12.973Z,8.17
2023-03-15T06:31:22.326Z,9.10
2023-03-15T06:34:33.806Z,9.60
2023-03-15T06:37:38.145Z,10.53
2023-03-15T06:40:45.663Z,10.10
2023-03-15T06:43:51.396Z,9.27
2023-03-15T06:46:55.612Z,9.60
2023-03-15T06:49:59.765Z,9.83
2023-03-15T06:53:04.271Z,9.83
2023-03-15T06:56:08.987Z,10.97
2023-03-15T06:59:14.777Z,11.17
2023-03-15T07:02:20.577Z,12.47
2023-03-15T07:05:25.009Z,10.33
2023-03-15T07:08:29.269Z,10.57
2023-03-15T07:11:33.570Z,10.40
2023-03-15T07:14:39.378Z,11.03
2023-03-15T07:17:43.718Z,10.60
2023-03-15T07:20:47.845Z,10.63
2023-03-15T07:23:52.059Z,10.47
2023-03-15T07:26:57.044Z,11.10
2023-03-15T07:30:02.672Z,11.10
2023-03-15T07:33:06.940Z,11.10
2023-03-15T07:36:11.344Z,9.53
2023-03-15T07:39:16.509Z,10.50
2023-03-15T07:42:20.740Z,13.83
2023-03-15T07:45:30.390Z,10.80
2023-03-15T07:48:34.618Z,10.47
2023-03-15T07:51:38.786Z,8.73
2023-03-15T07:54:42.929Z,9.17
2023-03-15T07:57:49.561Z,10.63
2023-03-15T08:00:58.138Z,10.67
2023-03-15T08:04:02.346Z,10.60
2023-03-15T08:07:06.714Z,10.53
2023-03-15T08:10:11.925Z,10.33
2023-03-15T08:13:16.236Z,9.97
2023-03-15T08:16:22.062Z,11.00
2023-03-15T08:19:26.495Z,11.33
2023-03-15T08:22:31.003Z,9.77
2023-03-15T08:25:35.460Z,9.90
2023-03-15T08:28:39.676Z,9.23
2023-03-15T08:31:45.318Z,11.40
2023-03-15T08:34:49.800Z,10.07
2023-03-15T08:37:53.910Z,10.80
2023-03-15T08:40:58.739Z,10.67
2023-03-15T08:44:03.257Z,9.77
2023-03-15T08:47:09.116Z,11.30
2023-03-15T08:50:15.693Z,10.40
2023-03-15T08:53:19.980Z,10.70
2023-03-15T08:56:24.205Z,10.17
2023-03-15T08:59:32.107Z,12.13
2023-03-15T09:02:39.117Z,12.50
2023-03-15T09:05:43.448Z,11.97
2023-03-15T09:08:47.707Z,11.53
2023-03-15T09:11:51.880Z,12.00
2023-03-15T09:14:56.078Z,10.43
2023-03-15T09:18:01.642Z,11.00
2023-03-15T09:21:07.745Z,10.90
2023-03-15T09:24:11.836Z,10.83
2023-03-15T09:27:16.072Z,10.73
2023-03-15T09:30:21.024Z,11.23
2023-03-15T09:33:26.819Z,10.90
2023-03-15T09:36:31.788Z,11.83
2023-03-15T09:39:36.869Z,11.83
2023-03-15T09:42:58.014Z,12.07
2023-03-15T09:46:12.740Z,11.37
2023-03-15T09:49:27.570Z,10.40
2023-03-15T09:52:44.166Z,11.90
2023-03-15T09:55:52.699Z,10.13
2023-03-15T09:58:59.914Z,10.17
2023-03-15T10:02:18.255Z,10.87
2023-03-15T10:05:27.958Z,10.23
2023-03-15T10:08:32.053Z,10.53
2023-03-15T10:11:41.775Z,11.57
2023-03-15T10:15:03.223Z,10.90
2023-03-15T10:18:27.252Z,12.27
2023-03-15T10:21:42.131Z,10.10
2023-03-15T10:24:50.726Z,10.83
2023-03-15T10:27:58.428Z,11.57
2023-03-15T10:31:10.320Z,11.43
2023-03-15T10:34:15.900Z,11.33
2023-03-15T10:37:24.068Z,11.10
2023-03-15T10:40:42.245Z,10.73
2023-03-15T10:43:59.831Z,11.23
2023-03-15T10:47:21.939Z,10.93
2023-03-15T10:50:29.839Z,11.33
2023-03-15T10:53:36.235Z,11.40
2023-03-15T10:56:47.361Z,12.07
2023-03-15T11:00:00.190Z,12.93
2023-03-15T11:03:06.409Z,12.20
2023-03-15T11:06:23.057Z,12.30
2023-03-15T11:09:29.239Z,12.43
2023-03-15T11:12:35.329Z,11.93
2023-03-15T11:15:41.496Z,11.57
2023-03-15T11:18:49.159Z,11.70
2023-03-15T11:21:53.677Z,11.67
2023-03-15T11:24:59.552Z,10.93
2023-03-15T11:28:04.927Z,11.47
2023-03-15T11:31:09.359Z,11.90
2023-03-15T11:34:19.371Z,11.90
2023-03-15T11:37:27.595Z,11.27
2023-03-15T11:40:36.585Z,11.23
2023-03-15T11:43:50.144Z,10.73
2023-03-15T11:47:00.821Z,11.20
2023-03-15T11:50:05.690Z,10.60
2023-03-15T11:53:15.217Z,10.33
2023-03-15T11:56:27.122Z,10.30
2023-03-15T11:59:32.973Z,9.93
2023-03-15T12:02:49.380Z,10.03
2023-03-15T12:05:54.462Z,10.47
2023-03-15T12:08:58.672Z,10.57
2023-03-15T12:12:06.208Z,10.73
2023-03-15T12:15:46.544Z,11.07
2023-03-15T12:18:51.690Z,11.27
2023-03-15T12:21:58.528Z,9.73
2023-03-15T12:25:12.332Z,11.17
2023-03-15T12:28:25.367Z,10.90
2023-03-15T12:31:45.952Z,10.90
2023-03-15T12:34:51.725Z,10.37
2023-03-15T12:37:57.424Z,9.90
2023-03-15T12:41:01.622Z,9.27
2023-03-15T12:44:43.750Z,8.90
2023-03-15T12:47:48.646Z,9.40
2023-03-15T12:50:59.737Z,8.50
2023-03-15T12:54:06.177Z,8.60
2023-03-15T12:57:12.676Z,8.07
2023-03-15T13:00:22.444Z,7.93
2023-03-15T13:03:28.944Z,7.37
2023-03-15T13:07:02.996Z,9.37
2023-03-15T13:10:42.716Z,7.70
2023-03-15T13:14:14.248Z,7.60
2023-03-15T13:17:33.895Z,6.67
2023-03-15T13:20:44.225Z,7.87
2023-03-15T13:23:53.878Z,8.07
2023-03-15T13:27:05.082Z,7.63
2023-03-15T13:30:29.840Z,7.13
2023-03-15T13:33:35.753Z,7.33
2023-03-15T13:36:46.043Z,7.37
2023-03-15T13:39:59.280Z,7.27
2023-03-15T13:43:03.613Z,7.17
2023-03-15T13:46:08.180Z,7.37
2023-03-15T13:49:14.979Z,7.07
2023-03-15T13:52:19.883Z,7.40
2023-03-15T13:55:25.657Z,6.87
2023-03-15T13:58:30.819Z,6.63
2023-03-15T14:01:42.804Z,6.20
2023-03-15T14:04:53.657Z,6.80
2023-03-15T14:08:03.041Z,6.97
2023-03-15T14:11:11.816Z,7.27
2023-03-15T14:14:23.719Z,6.97
2023-03-15T14:17:29.879Z,7.30
2023-03-15T14:20:41.781Z,8.23
2023-03-15T14:23:48.810Z,7.87
2023-03-15T14:26:55.551Z,10.87
2023-03-15T14:30:01.206Z,10.67
2023-03-15T14:33:09.100Z,35.57
2023-03-15T14:36:27.343Z,10.30
2023-03-15T14:39:33.683Z,7.90
2023-03-15T14:42:37.892Z,10.53
2023-03-15T14:45:44.275Z,8.00
2023-03-15T14:48:48.751Z,8.03
2023-03-15T14:51:57.769Z,8.13
2023-03-15T14:55:03.044Z,7.43
2023-03-15T14:58:13.761Z,7.17
2023-03-15T15:01:22.795Z,7.73
2023-03-15T15:04:33.823Z,9.33
2023-03-15T15:07:39.455Z,8.83
2023-03-15T15:10:45.949Z,7.83
2023-03-15T15:13:50.473Z,9.97
2023-03-15T15:16:54.683Z,10.07
2023-03-15T15:19:58.984Z,9.47
2023-03-15T15:23:04.872Z,8.47
2023-03-15T15:26:16.976Z,8.90
2023-03-15T15:29:21.747Z,10.70
2023-03-15T15:32:26.094Z,7.80
2023-03-15T15:35:30.250Z,8.13
2023-03-15T15:38:39.210Z,8.40
2023-03-15T15:41:43.447Z,9.10
2023-03-15T15:44:47.579Z,8.60
2023-03-15T15:47:52.320Z,9.13
2023-03-15T15:50:56.515Z,7.83
2023-03-15T15:54:03.139Z,8.50
2023-03-15T15:57:08.604Z,8.10
2023-03-15T16:00:18.455Z,8.17
2023-03-15T16:03:22.717Z,7.87
2023-03-15T16:06:27.669Z,8.53
2023-03-15T16:09:36.426Z,8.70
2023-03-15T16:12:40.469Z,7.87
2023-03-15T16:15:44.880Z,8.63
2023-03-15T16:18:49.149Z,9.10
2023-03-15T16:21:54.844Z,10.23
2023-03-15T16:25:01.876Z,9.67
2023-03-15T16:28:08.283Z,7.73
2023-03-15T16:31:12.821Z,7.50
2023-03-15T16:34:18.487Z,9.03
2023-03-15T16:37:25.627Z,13.80
2023-03-15T16:40:34.111Z,24.00
2023-03-15T16:43:38.354Z,14.37
2023-03-15T16:46:42.758Z,10.37
2023-03-15T16:49:46.877Z,11.77
2023-03-15T16:52:55.797Z,9.83
2023-03-15T16:56:01.441Z,14.17
2023-03-15T16:59:06.325Z,12.80
2023-03-15T17:02:19.746Z,14.17
2023-03-15T17:05:25.222Z,11.70
2023-03-15T17:08:29.692Z,11.23
2023-03-15T17:11:36.509Z,11.00
2023-03-15T17:14:41.469Z,21.30
2023-03-15T17:17:45.788Z,12.30
2023-03-15T17:20:51.121Z,31.20
2023-03-15T17:23:56.162Z,18.23
2023-03-15T17:27:01.786Z,12.23
2023-03-15T17:30:16.139Z,10.23
2023-03-15T17:33:20.291Z,9.67
2023-03-15T17:36:26.987Z,9.87
2023-03-15T17:39:31.349Z,10.03
2023-03-15T17:42:36.970Z,9.70
2023-03-15T17:45:41.309Z,11.17
2023-03-15T17:48:45.508Z,9.87
2023-03-15T17:51:49.675Z,10.37
2023-03-15T17:54:53.997Z,11.87
2023-03-15T17:57:59.607Z,19.23
2023-03-15T18:01:04.869Z,16.27
2023-03-15T18:04:12.255Z,16.93
2023-03-15T18:07:16.478Z,13.90
2023-03-15T18:10:24.327Z,14.80
2023-03-15T18:13:30.381Z,17.27
2023-03-15T18:16:34.565Z,19.07
2023-03-15T18:19:38.726Z,15.00
2023-03-15T18:22:43.078Z,18.30
2023-03-15T18:25:47.261Z,18.17
2023-03-15T18:28:53.118Z,18.67
2023-03-15T18:31:57.369Z,23.47
2023-03-15T18:35:01.786Z,20.87
2023-03-15T18:38:06.880Z,17.97
2023-03-15T18:41:20.500Z,17.23
2023-03-15T18:44:26.458Z,17.57
2023-03-15T18:47:30.751Z,19.43
2023-03-15T18:50:35.713Z,16.57
2023-03-15T18:53:40.284Z,14.33
2023-03-15T18:56:45.038Z,15.47
2023-03-15T18:59:50.607Z,16.20
2023-03-15T19:02:56.699Z,16.20
2023-03-15T19:06:06.306Z,18.70
2023-03-15T19:09:10.663Z,19.90
2023-03-15T19:12:14.895Z,19.17
2023-03-15T19:15:21.931Z,25.03
2023-03-15T19:18:26.852Z,22.33
2023-03-15T19:21:31.097Z,22.73
2023-03-15T19:24:36.656Z,26.50
2023-03-15T19:27:40.964Z,24.20
2023-03-15T19:30:46.619Z,19.33
2023-03-15T19:33:50.703Z,18.43
2023-03-15T19:36:54.864Z,19.47
2023-03-15T19:39:59.182Z,20.27
2023-03-15T19:43:03.433Z,18.57
2023-03-15T19:46:09.212Z,18.80
2023-03-15T19:49:13.506Z,18.10
2023-03-15T19:52:17.824Z,18.03
2023-03-15T19:55:22.894Z,17.53
2023-03-15T19:58:27.203Z,17.07
2023-03-15T20:01:33.592Z,19.40
2023-03-15T20:04:38.237Z,20.83
2023-03-15T20:07:43.391Z,19.83
2023-03-15T20:10:49.046Z,18.30
2023-03-15T20:13:53.959Z,17.13
2023-03-15T20:16:59.780Z,16.63
2023-03-15T20:20:06.273Z,19.23
2023-03-15T20:23:10.342Z,17.40
2023-03-15T20:26:17.173Z,17.40
2023-03-15T20:29:22.649Z,17.17
2023-03-15T20:32:28.314Z,16.00
2023-03-15T20:35:32.404Z,16.50
2023-03-15T20:38:37.615Z,16.17
2023-03-15T20:41:41.817Z,17.60
2023-03-15T20:44:45.980Z,18.27
2023-03-15T20:47:51.781Z,19.20
2023-03-15T20:50:57.013Z,19.60
2023-03-15T20:54:01.229Z,19.83
2023-03-15T20:57:06.827Z,21.17
2023-03-15T21:00:18.526Z,20.13
2023-03-15T21:03:24.801Z,21.43
2023-03-15T21:06:28.859Z,20.57
2023-03-15T21:09:33.227Z,20.23
2023-03-15T21:12:37.825Z,21.77
2023-03-15T21:15:46.123Z,22.30
2023-03-15T21:18:55.092Z,22.87
2023-03-15T21:21:59.444Z,22.73
2023-03-15T21:25:03.810Z,22.17
2023-03-15T21:28:07.893Z,23.50
2023-03-15T21:31:12.261Z,21.97
2023-03-15T21:34:18.233Z,21.73
2023-03-15T21:37:22.397Z,21.27
2023-03-15T21:40:26.871Z,20.93
2023-03-15T21:43:33.113Z,22.87
2023-03-15T21:46:37.700Z,21.37
2023-03-15T21:49:45.205Z,21.27
2023-03-15T21:52:49.320Z,22.93
2023-03-15T21:55:58.126Z,24.17
2023-03-15T21:59:02.252Z,22.97
2023-03-15T22:02:08.355Z,22.97
2023-03-15T22:05:15.218Z,24.13
2023-03-15T22:08:19.475Z,23.97
2023-03-15T22:11:23.662Z,24.40
2023-03-15T22:14:28.097Z,24.63
2023-03-15T22:18:27.007Z,24.87
2023-03-15T22:21:51.405Z,21.13
2023-03-15T22:24:55.779Z,20.73
2023-03-15T22:28:00.010Z,22.43
2023-03-15T22:31:04.338Z,20.60
2023-03-15T22:34:09.081Z,17.93
2023-03-15T22:37:15.049Z,18.30
2023-03-15T22:40:19.333Z,18.80
2023-03-15T22:43:23.565Z,18.20
2023-03-15T22:46:27.981Z,17.10
2023-03-15T22:49:32.082Z,17.10
2023-03-15T22:52:37.579Z,16.47
2023-03-15T22:55:41.677Z,15.80
2023-03-15T22:58:47.523Z,16.33
2023-03-15T23:01:51.775Z,16.47
2023-03-15T23:04:56.424Z,14.80
2023-03-15T23:08:02.108Z,15.20
2023-03-15T23:11:06.548Z,13.57
2023-03-15T23:14:10.599Z,13.17
2023-03-15T23:17:14.760Z,14.03
2023-03-15T23:20:20.126Z,12.90
2023-03-15T23:23:27.348Z,13.73
2023-03-15T23:26:37.602Z,12.57
2023-03-15T23:29:53.711Z,13.73
2023-03-15T23:32:59.106Z,12.57
2023-03-15T23:36:03.746Z,12.70
2023-03-15T23:39:09.601Z,12.30
2023-03-15T23:42:14.291Z,11.83
2023-03-15T23:45:18.451Z,11.73
2023-03-15T23:48:22.741Z,10.13
2023-03-15T23:51:26.953Z,10.70
2023-03-15T23:54:32.815Z,11.07
2023-03-15T23:57:36.841Z,10.33
